sensor_id;sensor_type;location;lat;lon;timestamp;P1;durP1;ratioP1;P2;durP2;ratioP2
45382;SDS011;42455;51.660;5.824;2023-05-07T00:00:34;6.0;;;6.0;;
45382;SDS011;42455;51.660;5.824;2023-05-07T00:05:40;6.5;;;6.0;;
45382;SDS011;42455;51.660;5.824;2023-05-07T00:10:47;7.0;;;6.0;;
45382;SDS011;42455;51.660;5.824;2023-05-07T00:15:53;7.0;;;6.0;;
45382;SDS011;42455;51.660;5.824;2023-05-07T00:20:59;8.0;;;7.0;;
45382;SDS011;42455;51.660;5.824;2023-05-07T00:26:05;7.0;;;6.0;;
45382;SDS011;42455;51.660;5.824;2023-05-07T00:31:11;7.0;;;7.0;;
45382;SDS011;42455;51.660;5.824;2023-05-07T00:36:18;8.0;;;7.0;;
45382;SDS011;42455;51.660;5.824;2023-05-07T00:41:24;8.0;;;7.0;;
45382;SDS011;42455;51.660;5.824;2023-05-07T00:46:32;8.0;;;7.0;;
45382;SDS011;42455;51.660;5.824;2023-05-07T00:51:36;8.0;;;7.0;;
45382;SDS011;42455;51.660;5.824;2023-05-07T00:56:43;9.0;;;8.0;;
45382;SDS011;42455;51.660;5.824;2023-05-07T01:06:55;10.5;;;9.5;;
45382;SDS011;42455;51.660;5.824;2023-05-07T01:12:01;11.5;;;10.0;;
45382;SDS011;42455;51.660;5.824;2023-05-07T01:17:06;12.0;;;11.0;;
45382;SDS011;42455;51.660;5.824;2023-05-07T01:22:13;11.0;;;10.0;;
45382;SDS011;42455;51.660;5.824;2023-05-07T01:27:19;12.0;;;10.0;;
45382;SDS011;42455;51.660;5.824;2023-05-07T01:32:27;13.0;;;12.0;;
45382;SDS011;42455;51.660;5.824;2023-05-07T01:37:31;13.0;;;12.0;;
45382;SDS011;42455;51.660;5.824;2023-05-07T01:42:37;12.0;;;11.0;;
45382;SDS011;42455;51.660;5.824;2023-05-07T01:47:44;12.0;;;11.0;;
45382;SDS011;42455;51.660;5.824;2023-05-07T01:52:50;13.0;;;12.0;;
45382;SDS011;42455;51.660;5.824;2023-05-07T01:57:56;13.0;;;12.0;;
45382;SDS011;42455;51.660;5.824;2023-05-07T02:03:02;13.0;;;12.0;;
45382;SDS011;42455;51.660;5.824;2023-05-07T02:08:08;13.0;;;12.0;;
45382;SDS011;42455;51.660;5.824;2023-05-07T02:13:15;13.0;;;12.0;;
45382;SDS011;42455;51.660;5.824;2023-05-07T02:18:21;14.0;;;13.0;;
45382;SDS011;42455;51.660;5.824;2023-05-07T02:23:27;15.0;;;14.0;;
45382;SDS011;42455;51.660;5.824;2023-05-07T02:28:33;16.0;;;15.0;;
45382;SDS011;42455;51.660;5.824;2023-05-07T02:33:40;16.0;;;15.0;;
45382;SDS011;42455;51.660;5.824;2023-05-07T02:38:46;17.0;;;15.0;;
45382;SDS011;42455;51.660;5.824;2023-05-07T02:43:52;16.0;;;15.0;;
45382;SDS011;42455;51.660;5.824;2023-05-07T02:48:58;17.0;;;15.0;;
45382;SDS011;42455;51.660;5.824;2023-05-07T02:54:04;18.0;;;16.0;;
45382;SDS011;42455;51.660;5.824;2023-05-07T02:59:11;18.0;;;16.0;;
45382;SDS011;42455;51.660;5.824;2023-05-07T03:04:16;18.0;;;16.0;;
45382;SDS011;42455;51.660;5.824;2023-05-07T03:09:22;19.0;;;17.0;;
45382;SDS011;42455;51.660;5.824;2023-05-07T03:14:27;19.0;;;17.0;;
45382;SDS011;42455;51.660;5.824;2023-05-07T03:19:34;20.0;;;18.0;;
45382;SDS011;42455;51.660;5.824;2023-05-07T03:24:39;20.0;;;19.0;;
45382;SDS011;42455;51.660;5.824;2023-05-07T03:29:45;20.0;;;18.0;;
45382;SDS011;42455;51.660;5.824;2023-05-07T03:34:51;20.0;;;18.0;;
45382;SDS011;42455;51.660;5.824;2023-05-07T03:39:57;20.0;;;19.0;;
45382;SDS011;42455;51.660;5.824;2023-05-07T03:45:04;21.0;;;19.0;;
45382;SDS011;42455;51.660;5.824;2023-05-07T03:50:10;21.0;;;20.0;;
45382;SDS011;42455;51.660;5.824;2023-05-07T03:55:16;22.0;;;20.0;;
45382;SDS011;42455;51.660;5.824;2023-05-07T04:00:22;22.0;;;20.0;;
45382;SDS011;42455;51.660;5.824;2023-05-07T04:05:28;22.0;;;20.5;;
45382;SDS011;42455;51.660;5.824;2023-05-07T04:10:35;23.0;;;21.0;;
45382;SDS011;42455;51.660;5.824;2023-05-07T04:15:41;22.5;;;21.0;;
45382;SDS011;42455;51.660;5.824;2023-05-07T04:20:47;23.0;;;21.0;;
45382;SDS011;42455;51.660;5.824;2023-05-07T04:25:53;23.0;;;21.0;;
45382;SDS011;42455;51.660;5.824;2023-05-07T04:30:59;24.0;;;22.0;;
45382;SDS011;42455;51.660;5.824;2023-05-07T04:36:06;24.0;;;22.0;;
45382;SDS011;42455;51.660;5.824;2023-05-07T04:41:12;23.0;;;21.0;;
45382;SDS011;42455;51.660;5.824;2023-05-07T04:46:18;24.0;;;22.0;;
45382;SDS011;42455;51.660;5.824;2023-05-07T04:51:24;24.0;;;22.0;;
45382;SDS011;42455;51.660;5.824;2023-05-07T04:56:30;24.5;;;22.0;;
45382;SDS011;42455;51.660;5.824;2023-05-07T05:01:37;24.0;;;22.0;;
45382;SDS011;42455;51.660;5.824;2023-05-07T05:06:43;25.5;;;23.0;;
45382;SDS011;42455;51.660;5.824;2023-05-07T05:11:48;26.0;;;24.0;;
45382;SDS011;42455;51.660;5.824;2023-05-07T05:16:54;26.0;;;24.0;;
45382;SDS011;42455;51.660;5.824;2023-05-07T05:22:00;26.0;;;24.0;;
45382;SDS011;42455;51.660;5.824;2023-05-07T05:27:06;26.0;;;24.0;;
45382;SDS011;42455;51.660;5.824;2023-05-07T05:32:12;27.0;;;24.0;;
45382;SDS011;42455;51.660;5.824;2023-05-07T05:37:18;25.0;;;23.0;;
45382;SDS011;42455;51.660;5.824;2023-05-07T05:42:24;25.0;;;23.0;;
45382;SDS011;42455;51.660;5.824;2023-05-07T05:47:31;25.0;;;23.0;;
45382;SDS011;42455;51.660;5.824;2023-05-07T05:52:37;26.0;;;24.0;;
45382;SDS011;42455;51.660;5.824;2023-05-07T05:57:43;26.0;;;24.0;;
45382;SDS011;42455;51.660;5.824;2023-05-07T06:02:49;24.5;;;22.0;;
45382;SDS011;42455;51.660;5.824;2023-05-07T06:07:55;25.0;;;22.5;;
45382;SDS011;42455;51.660;5.824;2023-05-07T06:13:02;25.0;;;23.0;;
45382;SDS011;42455;51.660;5.824;2023-05-07T06:18:08;24.0;;;22.0;;
45382;SDS011;42455;51.660;5.824;2023-05-07T06:23:14;23.0;;;21.0;;
45382;SDS011;42455;51.660;5.824;2023-05-07T06:28:20;24.0;;;22.0;;
45382;SDS011;42455;51.660;5.824;2023-05-07T06:33:27;24.0;;;22.0;;
45382;SDS011;42455;51.660;5.824;2023-05-07T06:38:33;24.0;;;22.0;;
45382;SDS011;42455;51.660;5.824;2023-05-07T06:43:39;23.0;;;21.0;;
45382;SDS011;42455;51.660;5.824;2023-05-07T06:48:45;22.5;;;20.5;;
45382;SDS011;42455;51.660;5.824;2023-05-07T06:53:51;22.0;;;20.0;;
45382;SDS011;42455;51.660;5.824;2023-05-07T06:58:59;22.0;;;20.0;;
45382;SDS011;42455;51.660;5.824;2023-05-07T07:04:04;21.0;;;19.0;;
45382;SDS011;42455;51.660;5.824;2023-05-07T07:09:09;20.5;;;19.0;;
45382;SDS011;42455;51.660;5.824;2023-05-07T07:14:15;20.0;;;18.0;;
45382;SDS011;42455;51.660;5.824;2023-05-07T07:19:22;20.0;;;18.0;;
45382;SDS011;42455;51.660;5.824;2023-05-07T07:24:28;20.0;;;18.0;;
45382;SDS011;42455;51.660;5.824;2023-05-07T07:29:34;19.0;;;18.0;;
45382;SDS011;42455;51.660;5.824;2023-05-07T07:34:40;19.0;;;17.0;;
45382;SDS011;42455;51.660;5.824;2023-05-07T07:39:46;18.5;;;17.0;;
45382;SDS011;42455;51.660;5.824;2023-05-07T07:44:52;18.0;;;16.0;;
45382;SDS011;42455;51.660;5.824;2023-05-07T07:49:59;16.5;;;15.0;;
45382;SDS011;42455;51.660;5.824;2023-05-07T07:55:05;17.0;;;15.0;;
45382;SDS011;42455;51.660;5.824;2023-05-07T08:00:11;16.0;;;15.0;;
45382;SDS011;42455;51.660;5.824;2023-05-07T08:05:17;16.0;;;14.0;;
45382;SDS011;42455;51.660;5.824;2023-05-07T08:10:23;16.0;;;14.0;;
45382;SDS011;42455;51.660;5.824;2023-05-07T08:15:30;16.0;;;15.0;;
45382;SDS011;42455;51.660;5.824;2023-05-07T08:20:36;15.0;;;14.0;;
45382;SDS011;42455;51.660;5.824;2023-05-07T08:25:42;15.0;;;14.0;;
45382;SDS011;42455;51.660;5.824;2023-05-07T08:30:48;15.0;;;14.0;;
45382;SDS011;42455;51.660;5.824;2023-05-07T08:35:54;15.0;;;14.0;;
45382;SDS011;42455;51.660;5.824;2023-05-07T08:41:01;15.0;;;14.0;;
45382;SDS011;42455;51.660;5.824;2023-05-07T08:46:08;14.0;;;13.0;;
45382;SDS011;42455;51.660;5.824;2023-05-07T08:51:15;15.0;;;13.5;;
45382;SDS011;42455;51.660;5.824;2023-05-07T08:56:18;14.0;;;12.0;;
45382;SDS011;42455;51.660;5.824;2023-05-07T09:01:25;14.0;;;13.0;;
45382;SDS011;42455;51.660;5.824;2023-05-07T09:06:30;14.0;;;13.0;;
45382;SDS011;42455;51.660;5.824;2023-05-07T09:11:36;13.0;;;12.0;;
45382;SDS011;42455;51.660;5.824;2023-05-07T09:16:41;13.0;;;12.0;;
45382;SDS011;42455;51.660;5.824;2023-05-07T09:21:47;13.0;;;12.0;;
45382;SDS011;42455;51.660;5.824;2023-05-07T09:26:54;12.0;;;11.0;;
45382;SDS011;42455;51.660;5.824;2023-05-07T09:32:00;13.0;;;12.0;;
45382;SDS011;42455;51.660;5.824;2023-05-07T09:37:06;12.0;;;11.0;;
45382;SDS011;42455;51.660;5.824;2023-05-07T09:42:13;11.0;;;10.0;;
45382;SDS011;42455;51.660;5.824;2023-05-07T09:47:19;10.0;;;9.0;;
45382;SDS011;42455;51.660;5.824;2023-05-07T09:52:25;11.0;;;10.0;;
45382;SDS011;42455;51.660;5.824;2023-05-07T09:57:31;11.0;;;10.0;;
45382;SDS011;42455;51.660;5.824;2023-05-07T10:02:37;10.0;;;9.0;;
45382;SDS011;42455;51.660;5.824;2023-05-07T10:07:43;10.0;;;9.0;;
45382;SDS011;42455;51.660;5.824;2023-05-07T10:12:50;10.5;;;10.0;;
45382;SDS011;42455;51.660;5.824;2023-05-07T10:17:56;10.0;;;9.5;;
45382;SDS011;42455;51.660;5.824;2023-05-07T10:23:02;10.0;;;9.0;;
45382;SDS011;42455;51.660;5.824;2023-05-07T10:28:08;10.0;;;9.0;;
45382;SDS011;42455;51.660;5.824;2023-05-07T10:33:15;10.0;;;9.0;;
45382;SDS011;42455;51.660;5.824;2023-05-07T10:38:21;10.0;;;9.0;;
45382;SDS011;42455;51.660;5.824;2023-05-07T10:43:37;9.5;;;9.0;;
45382;SDS011;42455;51.660;5.824;2023-05-07T10:48:33;9.0;;;8.0;;
45382;SDS011;42455;51.660;5.824;2023-05-07T10:53:39;9.0;;;8.0;;
45382;SDS011;42455;51.660;5.824;2023-05-07T10:58:46;8.5;;;8.0;;
45382;SDS011;42455;51.660;5.824;2023-05-07T11:04:15;9.0;;;8.0;;
45382;SDS011;42455;51.660;5.824;2023-05-07T11:08:57;8.0;;;7.0;;
45382;SDS011;42455;51.660;5.824;2023-05-07T11:14:02;7.0;;;7.0;;
45382;SDS011;42455;51.660;5.824;2023-05-07T11:19:08;7.0;;;7.0;;
45382;SDS011;42455;51.660;5.824;2023-05-07T11:24:15;8.0;;;7.0;;
45382;SDS011;42455;51.660;5.824;2023-05-07T11:29:21;7.0;;;7.0;;
45382;SDS011;42455;51.660;5.824;2023-05-07T11:34:27;6.0;;;5.0;;
45382;SDS011;42455;51.660;5.824;2023-05-07T11:39:33;6.0;;;5.0;;
45382;SDS011;42455;51.660;5.824;2023-05-07T11:44:46;7.0;;;6.0;;
45382;SDS011;42455;51.660;5.824;2023-05-07T11:49:46;6.0;;;6.0;;
45382;SDS011;42455;51.660;5.824;2023-05-07T11:54:52;7.0;;;6.0;;
45382;SDS011;42455;51.660;5.824;2023-05-07T11:59:58;6.0;;;6.0;;
45382;SDS011;42455;51.660;5.824;2023-05-07T12:05:04;6.0;;;5.0;;
45382;SDS011;42455;51.660;5.824;2023-05-07T12:10:11;6.0;;;5.0;;
45382;SDS011;42455;51.660;5.824;2023-05-07T12:15:17;6.0;;;5.0;;
45382;SDS011;42455;51.660;5.824;2023-05-07T12:20:23;5.0;;;5.0;;
45382;SDS011;42455;51.660;5.824;2023-05-07T12:25:30;6.0;;;5.0;;
45382;SDS011;42455;51.660;5.824;2023-05-07T12:30:36;5.0;;;5.0;;
45382;SDS011;42455;51.660;5.824;2023-05-07T12:35:42;5.0;;;5.0;;
45382;SDS011;42455;51.660;5.824;2023-05-07T12:40:48;6.0;;;5.0;;
45382;SDS011;42455;51.660;5.824;2023-05-07T12:45:56;5.0;;;5.0;;
45382;SDS011;42455;51.660;5.824;2023-05-07T12:51:00;5.0;;;4.0;;
45382;SDS011;42455;51.660;5.824;2023-05-07T12:56:06;5.0;;;4.0;;
45382;SDS011;42455;51.660;5.824;2023-05-07T13:01:12;5.0;;;4.0;;
45382;SDS011;42455;51.660;5.824;2023-05-07T13:11:24;5.0;;;5.0;;
45382;SDS011;42455;51.660;5.824;2023-05-07T13:16:29;5.0;;;4.0;;
45382;SDS011;42455;51.660;5.824;2023-05-07T13:21:35;5.0;;;4.0;;
45382;SDS011;42455;51.660;5.824;2023-05-07T13:26:42;5.0;;;5.0;;
45382;SDS011;42455;51.660;5.824;2023-05-07T13:31:48;5.0;;;4.0;;
45382;SDS011;42455;51.660;5.824;2023-05-07T13:36:54;5.0;;;4.0;;
45382;SDS011;42455;51.660;5.824;2023-05-07T13:42:00;5.0;;;4.0;;
45382;SDS011;42455;51.660;5.824;2023-05-07T13:47:07;5.0;;;4.0;;
45382;SDS011;42455;51.660;5.824;2023-05-07T13:52:13;5.0;;;4.0;;
45382;SDS011;42455;51.660;5.824;2023-05-07T13:57:19;2.0;;;1.0;;
45382;SDS011;42455;51.660;5.824;2023-05-07T14:02:25;3.0;;;1.0;;
45382;SDS011;42455;51.660;5.824;2023-05-07T14:07:31;2.0;;;1.0;;
45382;SDS011;42455;51.660;5.824;2023-05-07T14:12:38;2.0;;;1.0;;
45382;SDS011;42455;51.660;5.824;2023-05-07T14:17:44;2.0;;;1.0;;
45382;SDS011;42455;51.660;5.824;2023-05-07T14:22:50;2.0;;;1.0;;
45382;SDS011;42455;51.660;5.824;2023-05-07T14:27:56;2.0;;;1.0;;
45382;SDS011;42455;51.660;5.824;2023-05-07T14:33:02;3.0;;;1.0;;
45382;SDS011;42455;51.660;5.824;2023-05-07T14:38:09;2.0;;;1.0;;
45382;SDS011;42455;51.660;5.824;2023-05-07T14:43:15;3.0;;;2.0;;
45382;SDS011;42455;51.660;5.824;2023-05-07T14:48:21;3.0;;;2.0;;
45382;SDS011;42455;51.660;5.824;2023-05-07T14:53:27;2.0;;;2.0;;
45382;SDS011;42455;51.660;5.824;2023-05-07T14:58:34;2.0;;;1.0;;
45382;SDS011;42455;51.660;5.824;2023-05-07T15:03:39;3.0;;;2.0;;
45382;SDS011;42455;51.660;5.824;2023-05-07T15:08:45;2.0;;;2.0;;
45382;SDS011;42455;51.660;5.824;2023-05-07T15:13:50;3.0;;;2.0;;
45382;SDS011;42455;51.660;5.824;2023-05-07T15:18:56;2.0;;;2.0;;
45382;SDS011;42455;51.660;5.824;2023-05-07T15:24:03;2.0;;;2.0;;
45382;SDS011;42455;51.660;5.824;2023-05-07T15:29:09;2.0;;;1.5;;
45382;SDS011;42455;51.660;5.824;2023-05-07T15:34:15;3.0;;;1.0;;
45382;SDS011;42455;51.660;5.824;2023-05-07T15:39:21;2.0;;;1.0;;
45382;SDS011;42455;51.660;5.824;2023-05-07T15:44:27;2.0;;;1.0;;
45382;SDS011;42455;51.660;5.824;2023-05-07T15:49:33;2.0;;;1.0;;
45382;SDS011;42455;51.660;5.824;2023-05-07T15:54:40;1.0;;;1.0;;
45382;SDS011;42455;51.660;5.824;2023-05-07T15:59:46;2.0;;;1.0;;
45382;SDS011;42455;51.660;5.824;2023-05-07T16:04:52;2.0;;;1.0;;
45382;SDS011;42455;51.660;5.824;2023-05-07T16:09:58;2.5;;;2.0;;
45382;SDS011;42455;51.660;5.824;2023-05-07T16:15:05;3.0;;;2.0;;
45382;SDS011;42455;51.660;5.824;2023-05-07T16:20:11;2.0;;;2.0;;
45382;SDS011;42455;51.660;5.824;2023-05-07T16:25:16;2.0;;;2.0;;
45382;SDS011;42455;51.660;5.824;2023-05-07T16:30:22;3.0;;;2.0;;
45382;SDS011;42455;51.660;5.824;2023-05-07T16:35:28;3.0;;;3.0;;
45382;SDS011;42455;51.660;5.824;2023-05-07T16:40:36;5.0;;;5.0;;
45382;SDS011;42455;51.660;5.824;2023-05-07T16:45:41;6.0;;;6.0;;
45382;SDS011;42455;51.660;5.824;2023-05-07T16:50:47;6.0;;;6.0;;
45382;SDS011;42455;51.660;5.824;2023-05-07T16:55:53;7.0;;;6.0;;
45382;SDS011;42455;51.660;5.824;2023-05-07T17:00:58;6.0;;;6.0;;
45382;SDS011;42455;51.660;5.824;2023-05-07T17:06:05;6.0;;;5.0;;
45382;SDS011;42455;51.660;5.824;2023-05-07T17:11:11;6.0;;;5.0;;
45382;SDS011;42455;51.660;5.824;2023-05-07T17:16:17;6.0;;;6.0;;
45382;SDS011;42455;51.660;5.824;2023-05-07T17:21:23;7.0;;;6.0;;
45382;SDS011;42455;51.660;5.824;2023-05-07T17:26:30;7.0;;;6.0;;
45382;SDS011;42455;51.660;5.824;2023-05-07T17:31:36;6.0;;;6.0;;
45382;SDS011;42455;51.660;5.824;2023-05-07T17:36:42;6.0;;;6.0;;
45382;SDS011;42455;51.660;5.824;2023-05-07T17:41:48;7.0;;;6.0;;
45382;SDS011;42455;51.660;5.824;2023-05-07T17:46:54;6.0;;;5.0;;
45382;SDS011;42455;51.660;5.824;2023-05-07T17:52:01;5.0;;;4.0;;
45382;SDS011;42455;51.660;5.824;2023-05-07T17:57:07;4.0;;;4.0;;
45382;SDS011;42455;51.660;5.824;2023-05-07T18:02:13;5.0;;;4.0;;
45382;SDS011;42455;51.660;5.824;2023-05-07T18:07:19;4.0;;;4.0;;
45382;SDS011;42455;51.660;5.824;2023-05-07T18:12:26;5.0;;;4.0;;
45382;SDS011;42455;51.660;5.824;2023-05-07T18:17:32;5.0;;;4.0;;
45382;SDS011;42455;51.660;5.824;2023-05-07T18:22:38;4.0;;;4.0;;
45382;SDS011;42455;51.660;5.824;2023-05-07T18:27:44;4.0;;;4.0;;
45382;SDS011;42455;51.660;5.824;2023-05-07T18:32:50;4.0;;;4.0;;
45382;SDS011;42455;51.660;5.824;2023-05-07T18:37:56;4.0;;;4.0;;
45382;SDS011;42455;51.660;5.824;2023-05-07T18:43:03;4.0;;;4.0;;
45382;SDS011;42455;51.660;5.824;2023-05-07T18:48:08;4.0;;;4.0;;
45382;SDS011;42455;51.660;5.824;2023-05-07T18:53:14;4.0;;;4.0;;
45382;SDS011;42455;51.660;5.824;2023-05-07T18:58:20;4.0;;;4.0;;
45382;SDS011;42455;51.660;5.824;2023-05-07T19:03:27;5.0;;;4.0;;
45382;SDS011;42455;51.660;5.824;2023-05-07T19:08:33;5.0;;;4.0;;
45382;SDS011;42455;51.660;5.824;2023-05-07T19:13:39;4.0;;;4.0;;
45382;SDS011;42455;51.660;5.824;2023-05-07T19:18:46;5.0;;;4.0;;
45382;SDS011;42455;51.660;5.824;2023-05-07T19:23:51;6.0;;;4.0;;
45382;SDS011;42455;51.660;5.824;2023-05-07T19:28:58;5.0;;;5.0;;
45382;SDS011;42455;51.660;5.824;2023-05-07T19:34:04;5.0;;;5.0;;
45382;SDS011;42455;51.660;5.824;2023-05-07T19:39:10;6.0;;;5.0;;
45382;SDS011;42455;51.660;5.824;2023-05-07T19:44:16;6.0;;;5.0;;
45382;SDS011;42455;51.660;5.824;2023-05-07T19:49:23;6.0;;;6.0;;
45382;SDS011;42455;51.660;5.824;2023-05-07T19:54:29;6.0;;;6.0;;
45382;SDS011;42455;51.660;5.824;2023-05-07T19:59:35;6.0;;;6.0;;
45382;SDS011;42455;51.660;5.824;2023-05-07T20:04:41;7.0;;;7.0;;
45382;SDS011;42455;51.660;5.824;2023-05-07T20:09:47;8.0;;;7.5;;
45382;SDS011;42455;51.660;5.824;2023-05-07T20:14:53;9.0;;;8.0;;
45382;SDS011;42455;51.660;5.824;2023-05-07T20:20:00;8.0;;;7.5;;
45382;SDS011;42455;51.660;5.824;2023-05-07T20:25:06;8.0;;;7.0;;
45382;SDS011;42455;51.660;5.824;2023-05-07T20:30:12;9.0;;;8.0;;
45382;SDS011;42455;51.660;5.824;2023-05-07T20:35:17;8.0;;;8.0;;
45382;SDS011;42455;51.660;5.824;2023-05-07T20:40:24;9.0;;;8.0;;
45382;SDS011;42455;51.660;5.824;2023-05-07T20:45:29;10.0;;;9.0;;
45382;SDS011;42455;51.660;5.824;2023-05-07T20:50:35;12.0;;;11.0;;
45382;SDS011;42455;51.660;5.824;2023-05-07T20:55:41;12.0;;;11.0;;
45382;SDS011;42455;51.660;5.824;2023-05-07T21:00:47;15.0;;;13.0;;
45382;SDS011;42455;51.660;5.824;2023-05-07T21:05:54;15.0;;;13.0;;
45382;SDS011;42455;51.660;5.824;2023-05-07T21:11:00;14.0;;;13.0;;
45382;SDS011;42455;51.660;5.824;2023-05-07T21:21:12;17.0;;;15.0;;
45382;SDS011;42455;51.660;5.824;2023-05-07T21:26:19;11.0;;;10.0;;
45382;SDS011;42455;51.660;5.824;2023-05-07T21:31:25;11.0;;;10.0;;
45382;SDS011;42455;51.660;5.824;2023-05-07T21:36:31;10.0;;;9.5;;
45382;SDS011;42455;51.660;5.824;2023-05-07T21:41:37;10.0;;;9.0;;
45382;SDS011;42455;51.660;5.824;2023-05-07T21:46:43;11.0;;;10.0;;
45382;SDS011;42455;51.660;5.824;2023-05-07T21:51:50;10.0;;;9.0;;
45382;SDS011;42455;51.660;5.824;2023-05-07T21:56:56;11.0;;;10.0;;
45382;SDS011;42455;51.660;5.824;2023-05-07T22:02:02;11.0;;;10.0;;
45382;SDS011;42455;51.660;5.824;2023-05-07T22:07:08;11.0;;;10.5;;
45382;SDS011;42455;51.660;5.824;2023-05-07T22:12:14;12.0;;;11.0;;
45382;SDS011;42455;51.660;5.824;2023-05-07T22:17:21;11.0;;;10.0;;
45382;SDS011;42455;51.660;5.824;2023-05-07T22:22:27;12.0;;;11.0;;
45382;SDS011;42455;51.660;5.824;2023-05-07T22:27:33;13.0;;;12.0;;
45382;SDS011;42455;51.660;5.824;2023-05-07T22:32:40;13.0;;;12.0;;
45382;SDS011;42455;51.660;5.824;2023-05-07T22:37:44;13.0;;;12.0;;
45382;SDS011;42455;51.660;5.824;2023-05-07T22:42:51;13.0;;;12.0;;
45382;SDS011;42455;51.660;5.824;2023-05-07T22:47:56;13.0;;;12.0;;
45382;SDS011;42455;51.660;5.824;2023-05-07T22:53:02;13.0;;;12.0;;
45382;SDS011;42455;51.660;5.824;2023-05-07T22:58:07;14.0;;;12.0;;
45382;SDS011;42455;51.660;5.824;2023-05-07T23:03:13;16.0;;;14.0;;
45382;SDS011;42455;51.660;5.824;2023-05-07T23:08:20;14.0;;;13.0;;
45382;SDS011;42455;51.660;5.824;2023-05-07T23:13:26;15.0;;;14.0;;
45382;SDS011;42455;51.660;5.824;2023-05-07T23:18:32;16.0;;;14.0;;
45382;SDS011;42455;51.660;5.824;2023-05-07T23:23:38;16.0;;;15.0;;
45382;SDS011;42455;51.660;5.824;2023-05-07T23:28:45;16.0;;;15.0;;
45382;SDS011;42455;51.660;5.824;2023-05-07T23:33:51;16.0;;;15.0;;
45382;SDS011;42455;51.660;5.824;2023-05-07T23:38:57;17.0;;;16.0;;
45382;SDS011;42455;51.660;5.824;2023-05-07T23:44:03;17.5;;;16.0;;
45382;SDS011;42455;51.660;5.824;2023-05-07T23:49:09;17.0;;;15.0;;
45382;SDS011;42455;51.660;5.824;2023-05-07T23:54:16;18.0;;;16.0;;
45382;SDS011;42455;51.660;5.824;2023-05-07T23:59:22;19.0;;;18.0;;
